Time;durP1;ratioP1;P1;durP2;ratioP2;P2;SDS_P1;SDS_P2;PMS_P1;PMS_P2;Temp;Humidity;BMP_temperature;BMP_pressure;BME280_temperature;BME280_humidity;BME280_pressure;Samples;Min_cycle;Max_cycle;Signal;HPM_P1;HPM_P2
2023/07/15 00:01:28;;;;;;;;;3.25;3.25;;;;;33.86;26.47;99692.88;5057463;28;46111;-70
2023/07/15 00:03:54;;;;;;;;;3.00;3.00;;;;;33.77;26.37;99704.16;5057149;28;45426;-68
2023/07/15 00:06:23;;;;;;;;;3.00;3.00;;;;;33.72;26.55;99684.09;5058384;28;45402;-66
2023/07/15 00:08:50;;;;;;;;;3.00;3.00;;;;;33.75;26.43;99691.81;5054232;28;45642;-67
2023/07/15 00:11:25;;;;;;;;;3.25;3.25;;;;;33.75;26.55;99692.66;5041783;28;46990;-75
2023/07/15 00:13:50;;;;;;;;;2.50;2.25;;;;;33.66;26.52;99691.34;5021599;28;45557;-78
2023/07/15 00:16:15;;;;;;;;;4.00;4.00;;;;;33.60;26.81;99682.19;5043891;28;45480;-77
2023/07/15 00:18:41;;;;;;;;;3.50;3.50;;;;;33.62;26.59;99685.53;5047219;28;45320;-69
2023/07/15 00:21:20;;;;;;;;;4.00;4.00;;;;;33.69;26.62;99690.03;5048438;28;46135;-71
2023/07/15 00:23:48;;;;;;;;;2.75;2.75;;;;;33.67;26.89;99694.88;5062571;28;44965;-71
2023/07/15 00:26:14;;;;;;;;;3.50;3.50;;;;;33.59;27.19;99688.72;5062050;28;45279;-77
2023/07/15 00:28:39;;;;;;;;;1.75;1.75;;;;;33.63;27.28;99692.63;5061390;28;45335;-72
2023/07/15 00:31:12;;;;;;;;;1.00;1.00;;;;;33.64;27.07;99702.47;5056972;28;46248;-76
2023/07/15 00:33:38;;;;;;;;;3.00;3.00;;;;;33.52;26.93;99688.00;5056922;28;45230;-74
2023/07/15 00:36:05;;;;;;;;;2.00;2.00;;;;;33.57;27.29;99706.41;5057405;28;45304;-76
2023/07/15 00:38:30;;;;;;;;;3.00;3.00;;;;;33.50;27.53;99709.22;5057607;28;45335;-74
2023/07/15 00:40:55;;;;;;;;;1.50;1.50;;;;;33.47;27.58;99710.53;5057137;28;49224;-71
2023/07/15 00:43:54;;;;;;;;;1.50;1.50;;;;;33.47;27.91;99715.97;5058583;28;45398;-77
2023/07/15 00:46:22;;;;;;;;;0.50;0.50;;;;;33.34;28.91;99703.34;5057303;28;45398;-74
2023/07/15 00:48:54;;;;;;;;;1.75;1.75;;;;;33.33;28.21;99707.16;5057556;28;45187;-77
2023/07/15 00:51:21;;;;;;;;;2.00;2.00;;;;;33.27;28.51;99699.06;5057093;28;45426;-75
2023/07/15 00:53:48;;;;;;;;;2.00;2.00;;;;;33.26;29.12;99711.88;5056659;28;45284;-77
2023/07/15 00:56:14;;;;;;;;;1.00;1.00;;;;;33.04;29.74;99706.97;5059766;28;45308;-69
2023/07/15 00:58:40;;;;;;;;;1.75;1.75;;;;;33.06;29.61;99715.72;5060380;28;45479;-74
2023/07/15 01:01:07;;;;;;;;;1.50;1.50;;;;;33.00;30.60;99713.94;5057189;28;46104;-75
2023/07/15 01:03:33;;;;;;;;;0.75;0.75;;;;;32.92;30.77;99717.00;5056726;28;45311;-73
2023/07/15 01:05:58;;;;;;;;;2.00;2.00;;;;;32.94;30.29;99723.03;5056771;28;48803;-76
2023/07/15 01:08:23;;;;;;;;;1.50;1.50;;;;;32.99;30.70;99720.44;5057105;28;45255;-75
2023/07/15 01:10:49;;;;;;;;;0.25;0.25;;;;;33.01;30.95;99717.47;5056800;28;46208;-76
2023/07/15 01:13:14;;;;;;;;;1.00;1.00;;;;;33.03;31.22;99721.66;5058584;28;45273;-67
2023/07/15 01:15:39;;;;;;;;;1.00;1.00;;;;;33.03;31.42;99713.47;5057233;28;45294;-72
2023/07/15 01:18:05;;;;;;;;;0.00;0.00;;;;;32.95;31.10;99719.25;5057270;28;45216;-73
2023/07/15 01:20:32;;;;;;;;;0.75;0.75;;;;;33.02;31.66;99717.25;5056707;28;46430;-73
2023/07/15 01:22:57;;;;;;;;;1.00;1.00;;;;;32.97;31.61;99714.41;5056359;28;45363;-76
2023/07/15 01:25:23;;;;;;;;;1.00;1.00;;;;;32.89;31.64;99703.84;5056200;28;45247;-75
2023/07/15 01:27:48;;;;;;;;;0.00;0.00;;;;;32.87;32.04;99723.13;5055867;28;45621;-74
2023/07/15 01:30:15;;;;;;;;;2.00;2.00;;;;;32.78;32.91;99728.00;5055656;28;66000;-76
2023/07/15 01:32:40;;;;;;;;;0.00;0.00;;;;;32.71;32.85;99721.00;5056777;28;45367;-73
2023/07/15 01:35:06;;;;;;;;;0.00;0.00;;;;;32.66;33.37;99716.22;5056504;28;45422;-74
2023/07/15 01:37:31;;;;;;;;;1.00;1.00;;;;;32.65;33.53;99709.13;5056526;28;45318;-74
2023/07/15 01:39:56;;;;;;;;;1.00;1.00;;;;;32.74;33.37;99715.91;5056332;28;47509;-73
2023/07/15 01:42:22;;;;;;;;;0.50;0.50;;;;;32.85;32.88;99710.75;5056475;28;45490;-73
2023/07/15 01:44:47;;;;;;;;;0.00;0.00;;;;;32.94;32.76;99712.13;5057065;28;45642;-70
2023/07/15 01:47:13;;;;;;;;;0.00;0.00;;;;;32.93;33.17;99692.22;5057029;28;45321;-72
2023/07/15 01:49:38;;;;;;;;;1.00;1.00;;;;;32.89;33.21;99692.94;5056257;28;46029;-72
2023/07/15 01:52:04;;;;;;;;;0.25;0.25;;;;;32.93;33.58;99702.31;5056757;28;45339;-77
2023/07/15 01:54:29;;;;;;;;;0.00;0.00;;;;;32.94;32.90;99695.78;5056936;28;45378;-67
2023/07/15 01:56:55;;;;;;;;;0.00;0.00;;;;;32.95;33.67;99675.66;5057266;28;45496;-64
2023/07/15 01:59:20;;;;;;;;;0.00;0.00;;;;;32.77;33.44;99666.44;5060430;28;45266;-65
2023/07/15 02:01:45;;;;;;;;;1.00;1.00;;;;;32.73;33.23;99661.69;5058013;28;45414;-69
2023/07/15 02:04:11;;;;;;;;;0.50;0.50;;;;;32.73;33.70;99676.13;5038068;28;45313;-68
2023/07/15 02:06:36;;;;;;;;;0.75;0.75;;;;;32.60;33.83;99665.44;5059172;28;45190;-68
2023/07/15 02:09:07;;;;;;;;;1.75;1.75;;;;;32.52;33.95;99672.03;5056779;28;45229;-70
2023/07/15 02:11:33;;;;;;;;;0.00;0.00;;;;;32.58;33.61;99665.66;5056375;28;45408;-72
2023/07/15 02:13:58;;;;;;;;;1.00;1.00;;;;;32.56;34.54;99667.78;5056728;28;45314;-76
2023/07/15 02:16:24;;;;;;;;;1.00;1.00;;;;;32.55;34.44;99668.84;5055876;28;45582;-74
2023/07/15 02:18:49;;;;;;;;;0.00;0.00;;;;;32.42;34.74;99644.53;5056213;28;46237;-74
2023/07/15 02:21:14;;;;;;;;;1.00;1.00;;;;;32.47;35.01;99664.53;5056176;28;45357;-75
2023/07/15 02:23:40;;;;;;;;;0.25;0.25;;;;;32.40;34.76;99652.09;5055962;28;45327;-68
2023/07/15 02:26:05;;;;;;;;;1.00;1.00;;;;;32.44;34.94;99656.84;5055964;28;45238;-72
2023/07/15 02:28:30;;;;;;;;;0.00;0.00;;;;;32.41;34.80;99670.91;5038378;28;72228;-73
2023/07/15 02:30:55;;;;;;;;;1.00;1.00;;;;;32.32;35.43;99680.44;5055809;28;64054;-65
2023/07/15 02:33:23;;;;;;;;;0.25;0.25;;;;;32.30;35.44;99688.81;5055760;28;45291;-67
2023/07/15 02:35:48;;;;;;;;;1.25;1.25;;;;;32.22;35.18;99655.63;5060204;28;45486;-69
2023/07/15 02:38:13;;;;;;;;;0.00;0.00;;;;;32.34;35.25;99670.16;5061037;28;45496;-66
2023/07/15 02:40:39;;;;;;;;;1.00;1.00;;;;;32.33;35.33;99669.31;5059033;28;45474;-66
2023/07/15 02:43:04;;;;;;;;;1.50;1.50;;;;;32.37;35.10;99679.78;5058230;28;61225;-69
2023/07/15 02:45:30;;;;;;;;;1.50;1.50;;;;;32.42;35.09;99693.53;5059280;28;45401;-67
2023/07/15 02:47:55;;;;;;;;;1.00;1.00;;;;;32.40;34.96;99690.19;5058893;28;46143;-67
2023/07/15 02:50:21;;;;;;;;;1.50;1.50;;;;;32.40;36.01;99698.34;5059778;28;45300;-68
2023/07/15 02:52:46;;;;;;;;;1.50;1.50;;;;;32.41;35.66;99698.13;5060150;28;45362;-68
2023/07/15 02:55:11;;;;;;;;;0.25;0.25;;;;;32.34;35.70;99691.94;5059021;28;45559;-66
2023/07/15 02:57:37;;;;;;;;;1.00;1.00;;;;;32.39;35.73;99689.34;5059847;28;47103;-67
2023/07/15 03:00:15;;;;;;;;;0.75;0.00;;;;;32.37;35.51;99686.03;5058466;28;45335;-70
2023/07/15 03:02:50;;;;;;;;;0.50;0.50;;;;;32.29;35.74;99684.41;5058928;28;45303;-76
2023/07/15 03:05:16;;;;;;;;;0.25;0.25;;;;;32.25;35.54;99666.88;5059243;28;45391;-68
2023/07/15 03:07:45;;;;;;;;;1.00;1.00;;;;;32.15;36.00;99658.41;5040613;28;47297;-70
2023/07/15 03:10:15;;;;;;;;;0.00;0.00;;;;;32.27;35.79;99672.91;5058511;28;45307;-78
2023/07/15 03:12:42;;;;;;;;;1.25;1.25;;;;;32.19;35.97;99668.63;5039562;28;45452;-70
2023/07/15 03:15:09;;;;;;;;;0.75;0.75;;;;;32.17;36.18;99676.19;5058486;28;45588;-68
2023/07/15 03:17:37;;;;;;;;;0.00;0.00;;;;;32.01;36.40;99680.31;5058338;28;46368;-68
2023/07/15 03:20:14;;;;;;;;;1.00;1.00;;;;;32.09;36.59;99683.78;5058288;28;45327;-76
2023/07/15 03:22:39;;;;;;;;;1.50;1.50;;;;;32.04;36.91;99688.03;5058505;28;45307;-70
2023/07/15 03:25:06;;;;;;;;;1.75;1.50;;;;;32.04;36.91;99682.59;5058717;28;45320;-65
2023/07/15 03:27:31;;;;;;;;;0.50;0.50;;;;;31.96;37.08;99652.16;5058590;28;47294;-69
2023/07/15 03:29:56;;;;;;;;;0.00;0.00;;;;;32.03;36.86;99663.78;5058288;28;45295;-66
2023/07/15 03:32:23;;;;;;;;;0.50;0.50;;;;;31.83;36.82;99645.81;5058544;28;45324;-65
2023/07/15 03:34:48;;;;;;;;;1.00;1.00;;;;;32.03;36.57;99680.13;5058671;28;45455;-64
2023/07/15 03:37:14;;;;;;;;;0.50;0.50;;;;;32.04;37.51;99685.31;5057368;28;45478;-66
2023/07/15 03:39:39;;;;;;;;;0.75;0.75;;;;;32.06;37.36;99690.53;5057954;28;45446;-72
2023/07/15 03:42:04;;;;;;;;;1.00;1.00;;;;;31.95;37.51;99691.28;5058400;28;47158;-73
2023/07/15 03:44:30;;;;;;;;;0.00;0.00;;;;;31.95;37.50;99674.97;5058337;28;45642;-76
2023/07/15 03:46:57;;;;;;;;;0.25;0.25;;;;;31.88;37.79;99694.91;5040024;28;48110;-70
2023/07/15 03:49:23;;;;;;;;;0.00;0.00;;;;;31.85;37.84;99695.34;5058047;28;45513;-75
2023/07/15 03:51:48;;;;;;;;;0.00;0.00;;;;;31.74;37.96;99693.31;5057145;28;45320;-72
2023/07/15 03:54:13;;;;;;;;;0.00;0.00;;;;;31.62;38.23;99702.19;5058679;28;45805;-72
2023/07/15 03:56:40;;;;;;;;;0.75;0.75;;;;;31.57;38.25;99698.50;5039840;28;46106;-69
2023/07/15 03:59:05;;;;;;;;;0.75;0.75;;;;;31.53;38.62;99689.13;5058069;28;45333;-70
2023/07/15 04:01:31;;;;;;;;;0.00;0.00;;;;;31.51;38.62;99672.22;5060741;28;45209;-66
2023/07/15 04:03:56;;;;;;;;;0.75;0.75;;;;;31.50;38.45;99659.69;5057752;28;45529;-68
2023/07/15 04:06:21;;;;;;;;;0.75;0.75;;;;;31.66;38.57;99644.66;5057637;28;46208;-64
2023/07/15 04:08:49;;;;;;;;;3.00;3.00;;;;;31.74;38.17;99650.69;5057422;28;45306;-64
2023/07/15 04:11:16;;;;;;;;;0.00;0.00;;;;;31.78;38.12;99661.94;5057831;28;45442;-65
2023/07/15 04:13:41;;;;;;;;;0.00;0.00;;;;;31.82;38.53;99676.78;5058103;28;45505;-64
2023/07/15 04:16:06;;;;;;;;;0.75;0.75;;;;;31.74;38.38;99723.22;5038819;28;54641;-65
2023/07/15 04:18:32;;;;;;;;;0.25;0.25;;;;;31.72;38.38;99755.22;5039275;28;45422;-72
2023/07/15 04:20:57;;;;;;;;;0.00;0.00;;;;;31.76;38.16;99732.00;5056688;28;58614;-69
2023/07/15 04:23:22;;;;;;;;;0.00;0.00;;;;;31.79;38.66;99712.53;5039567;28;45255;-72
2023/07/15 04:25:48;;;;;;;;;0.75;0.75;;;;;31.85;38.31;99722.53;5057106;28;46347;-66
2023/07/15 04:28:14;;;;;;;;;0.75;0.75;;;;;31.89;37.78;99702.00;5057802;28;45341;-70
2023/07/15 04:30:39;;;;;;;;;0.00;0.00;;;;;31.91;38.39;99661.81;5057991;28;45311;-69
2023/07/15 04:33:04;;;;;;;;;1.25;1.25;;;;;32.02;38.19;99673.81;5057491;28;45542;-70
2023/07/15 04:35:30;;;;;;;;;0.00;0.00;;;;;32.08;38.87;99669.38;5057064;28;46248;-71
2023/07/15 04:37:55;;;;;;;;;0.50;0.50;;;;;31.95;38.64;99650.50;5057706;28;45268;-74
2023/07/15 04:40:21;;;;;;;;;0.75;0.75;;;;;31.90;38.95;99630.25;5057273;28;45371;-66
2023/07/15 04:42:46;;;;;;;;;0.75;0.75;;;;;31.91;38.74;99636.50;5057366;28;45417;-69
2023/07/15 04:45:11;;;;;;;;;1.25;1.25;;;;;31.96;38.73;99647.53;5056636;28;54255;-71
2023/07/15 04:47:37;;;;;;;;;1.50;1.50;;;;;31.99;38.25;99659.88;5056941;28;45427;-68
2023/07/15 04:50:03;;;;;;;;;2.00;2.00;;;;;32.01;38.74;99649.59;5057096;28;45415;-69
2023/07/15 04:52:28;;;;;;;;;0.00;0.00;;;;;32.03;38.20;99659.16;5057251;28;45383;-73
2023/07/15 04:54:54;;;;;;;;;0.75;0.75;;;;;32.04;38.51;99651.84;5057104;28;45443;-72
2023/07/15 04:57:19;;;;;;;;;0.00;0.00;;;;;32.08;38.60;99666.66;5057133;28;45457;-69
2023/07/15 04:59:45;;;;;;;;;0.75;0.75;;;;;32.09;39.40;99656.59;5059235;28;45735;-75
2023/07/15 05:02:11;;;;;;;;;0.50;0.50;;;;;31.91;39.65;99653.66;5060502;28;45391;-71
2023/07/15 05:04:37;;;;;;;;;1.00;1.00;;;;;31.78;39.36;99667.38;5057716;28;46131;-76
2023/07/15 05:07:02;;;;;;;;;0.00;0.00;;;;;31.71;39.92;99664.69;5039603;28;45425;-71
2023/07/15 05:09:30;;;;;;;;;2.00;2.00;;;;;31.75;39.70;99678.69;5057022;28;45469;-70
2023/07/15 05:11:57;;;;;;;;;1.00;1.00;;;;;31.72;39.86;99681.81;5057918;28;45339;-72
2023/07/15 05:14:22;;;;;;;;;1.50;1.50;;;;;31.76;39.52;99659.44;5057061;28;46134;-68
2023/07/15 05:16:47;;;;;;;;;2.75;2.75;;;;;31.62;39.43;99668.75;5057484;28;45297;-67
2023/07/15 05:19:13;;;;;;;;;0.00;0.00;;;;;31.64;39.35;99661.22;5057334;28;50061;-69
2023/07/15 05:21:38;;;;;;;;;0.00;0.00;;;;;31.68;39.92;99662.44;5059320;28;45497;-74
2023/07/15 05:24:04;;;;;;;;;1.75;1.75;;;;;31.60;40.07;99670.88;5062356;28;63802;-75
2023/07/15 05:26:30;;;;;;;;;1.00;1.00;;;;;31.62;39.94;99658.72;5057634;28;45915;-64
2023/07/15 05:28:55;;;;;;;;;1.00;1.00;;;;;31.61;40.12;99670.63;5057337;28;45466;-73
2023/07/15 05:31:21;;;;;;;;;1.25;1.25;;;;;31.67;40.02;99668.06;5057216;28;45448;-71
2023/07/15 05:33:46;;;;;;;;;1.00;1.00;;;;;31.75;40.12;99684.97;5059562;28;46021;-70
2023/07/15 05:36:13;;;;;;;;;0.50;0.50;;;;;31.73;39.81;99675.34;5060748;28;45356;-70
2023/07/15 05:38:42;;;;;;;;;1.75;1.75;;;;;31.86;39.39;99694.28;5057479;28;45412;-74
2023/07/15 05:41:08;;;;;;;;;1.25;1.25;;;;;31.80;39.33;99676.13;5056771;28;45252;-78
2023/07/15 05:43:34;;;;;;;;;1.75;1.75;;;;;31.86;38.93;99699.72;5056783;28;46190;-76
2023/07/15 05:46:00;;;;;;;;;1.50;1.50;;;;;31.77;39.55;99722.78;5058444;28;45382;-75
2023/07/15 05:48:25;;;;;;;;;0.00;0.00;;;;;31.82;39.47;99711.25;5057599;28;45947;-77
2023/07/15 05:50:51;;;;;;;;;2.00;2.00;;;;;31.78;39.70;99697.28;5056155;28;57000;-73
2023/07/15 05:53:16;;;;;;;;;0.00;0.00;;;;;31.88;39.49;99708.50;5058394;28;45355;-74
2023/07/15 05:55:41;;;;;;;;;2.00;1.00;;;;;31.93;38.89;99728.75;5059899;28;52431;-77
2023/07/15 05:58:09;;;;;;;;;1.50;1.50;;;;;31.91;39.22;99732.53;5058109;28;45328;-75
2023/07/15 06:00:40;;;;;;;;;1.50;1.50;;;;;31.95;39.23;99735.59;5056966;28;45632;-78
2023/07/15 06:03:06;;;;;;;;;1.75;1.75;;;;;31.93;39.67;99731.47;5055860;28;45394;-75
2023/07/15 06:05:31;;;;;;;;;1.50;1.50;;;;;31.98;39.26;99739.78;5038587;28;45394;-78
2023/07/15 06:07:56;;;;;;;;;1.00;1.00;;;;;32.07;39.15;99735.72;5056156;28;45395;-78
2023/07/15 06:10:22;;;;;;;;;2.25;2.25;;;;;32.03;38.98;99750.81;5055968;28;45549;-76
2023/07/15 06:12:47;;;;;;;;;0.50;0.50;;;;;32.06;38.95;99759.34;5037677;28;46539;-76
2023/07/15 06:15:12;;;;;;;;;1.75;1.75;;;;;32.05;38.86;99740.53;5055197;28;45405;-77
2023/07/15 06:17:38;;;;;;;;;1.00;1.00;;;;;31.96;38.67;99748.16;5055885;28;45327;-74
2023/07/15 06:20:05;;;;;;;;;1.00;1.00;;;;;31.90;38.51;99751.75;5056191;28;45614;-71
2023/07/15 06:22:30;;;;;;;;;0.00;0.00;;;;;31.82;38.32;99776.53;5056031;28;47537;-76
2023/07/15 06:24:55;;;;;;;;;1.75;1.75;;;;;31.73;38.97;99778.63;5055794;28;45311;-73
2023/07/15 06:27:22;;;;;;;;;2.25;2.25;;;;;31.68;39.38;99764.88;5055856;28;45228;-74
2023/07/15 06:29:48;;;;;;;;;3.25;3.25;;;;;31.57;39.54;99758.28;5055906;28;45586;-75
2023/07/15 06:32:14;;;;;;;;;1.00;1.00;;;;;31.72;38.85;99749.78;5055782;28;47139;-68
2023/07/15 06:34:39;;;;;;;;;1.50;1.50;;;;;31.85;39.06;99757.88;5057336;28;45371;-67
2023/07/15 06:37:04;;;;;;;;;0.75;0.75;;;;;31.94;39.01;99780.19;5055843;28;45331;-70
2023/07/15 06:39:30;;;;;;;;;1.00;1.00;;;;;32.06;37.88;99772.13;5056216;28;45623;-72
2023/07/15 06:41:55;;;;;;;;;1.00;1.00;;;;;32.28;37.96;99779.88;5056026;28;46450;-71
2023/07/15 06:44:21;;;;;;;;;2.25;2.25;;;;;32.18;37.52;99785.81;5056619;28;45332;-76
2023/07/15 06:46:46;;;;;;;;;2.25;2.25;;;;;32.16;37.12;99785.19;5056265;28;45396;-75
2023/07/15 06:49:11;;;;;;;;;1.50;1.50;;;;;32.12;37.22;99781.25;5055686;28;45532;-72
2023/07/15 06:51:37;;;;;;;;;5.00;5.00;;;;;32.03;37.28;99767.97;5055353;28;45426;-72
2023/07/15 06:54:02;;;;;;;;;2.75;2.75;;;;;32.00;37.23;99792.06;5055688;28;45389;-68
2023/07/15 06:56:28;;;;;;;;;3.00;3.00;;;;;32.09;37.92;99779.84;5055300;28;45568;-69
2023/07/15 06:58:54;;;;;;;;;1.00;1.00;;;;;32.03;37.56;99799.78;5037385;28;45630;-73
2023/07/15 07:01:19;;;;;;;;;5.25;5.25;;;;;31.78;37.04;99776.13;5037205;28;47670;-73
2023/07/15 07:03:45;;;;;;;;;3.50;3.50;;;;;31.80;37.97;99795.75;5056502;28;45444;-71
2023/07/15 07:06:10;;;;;;;;;1.00;1.00;;;;;31.82;37.48;99781.97;5058747;28;45303;-71
2023/07/15 07:08:36;;;;;;;;;1.75;1.75;;;;;31.83;36.88;99767.31;5058708;28;45597;-69
2023/07/15 07:11:01;;;;;;;;;2.00;2.00;;;;;31.94;36.99;99804.66;5055696;28;45288;-71
2023/07/15 07:13:26;;;;;;;;;2.00;2.00;;;;;31.77;36.61;99807.91;5037256;28;45606;-67
2023/07/15 07:15:56;;;;;;;;;1.00;1.00;;;;;31.72;37.23;99785.97;5037632;28;45275;-69
2023/07/15 07:18:21;;;;;;;;;1.50;1.50;;;;;31.51;37.16;99786.34;5055605;28;45617;-74
2023/07/15 07:20:46;;;;;;;;;0.00;0.00;;;;;31.34;37.59;99792.31;5055000;28;46108;-76
2023/07/15 07:23:12;;;;;;;;;0.50;0.50;;;;;31.32;37.72;99794.41;5055393;28;45392;-70
2023/07/15 07:25:41;;;;;;;;;2.75;2.75;;;;;31.40;37.63;99805.00;5055352;28;45331;-74
2023/07/15 07:28:06;;;;;;;;;0.50;0.50;;;;;31.44;37.35;99810.84;5060021;28;45722;-70
2023/07/15 07:30:31;;;;;;;;;1.50;1.50;;;;;31.56;37.00;99786.50;5059437;28;53943;-74
2023/07/15 07:32:57;;;;;;;;;2.50;2.50;;;;;31.62;36.82;99805.47;5058849;28;45277;-70
2023/07/15 07:35:22;;;;;;;;;2.00;2.00;;;;;31.67;36.80;99813.00;5058861;28;45241;-71
2023/07/15 07:37:49;;;;;;;;;1.25;1.25;;;;;31.67;36.81;99806.69;5054453;28;45602;-70
2023/07/15 07:40:14;;;;;;;;;2.00;2.00;;;;;31.65;36.20;99823.25;5055612;28;45479;-67
2023/07/15 07:42:39;;;;;;;;;2.00;2.00;;;;;31.49;36.32;99827.31;5058552;28;45404;-66
2023/07/15 07:45:14;;;;;;;;;1.50;1.50;;;;;31.51;36.04;99827.94;5045920;28;45344;-68
2023/07/15 07:47:40;;;;;;;;;2.00;2.00;;;;;31.39;35.61;99829.69;5054877;28;45387;-71
2023/07/15 07:50:06;;;;;;;;;2.00;1.00;;;;;31.30;35.47;99827.22;5060647;28;46682;-68
2023/07/15 07:52:31;;;;;;;;;0.75;0.75;;;;;31.29;35.61;99832.88;5061738;28;45505;-66
2023/07/15 07:54:57;;;;;;;;;0.75;0.75;;;;;31.43;35.46;99841.78;5056892;28;45387;-66
2023/07/15 07:57:22;;;;;;;;;0.75;0.75;;;;;31.54;35.00;99835.63;5070178;28;45543;-66
2023/07/15 07:59:47;;;;;;;;;0.50;0.50;;;;;31.68;34.50;99841.00;5066501;28;46022;-74
2023/07/15 08:02:13;;;;;;;;;1.00;1.00;;;;;31.75;34.35;99837.22;5053383;28;59659;-73
2023/07/15 08:04:38;;;;;;;;;2.00;2.00;;;;;31.80;33.96;99819.41;5070918;28;45531;-66
2023/07/15 08:07:04;;;;;;;;;1.25;1.25;;;;;31.90;34.56;99822.47;5059705;28;45322;-64
2023/07/15 08:09:29;;;;;;;;;5.00;5.00;;;;;32.04;34.16;99834.91;5059454;28;45677;-69
2023/07/15 08:11:54;;;;;;;;;0.25;0.25;;;;;31.99;33.46;99837.44;5030660;28;45385;-73
2023/07/15 08:14:20;;;;;;;;;2.00;2.00;;;;;32.08;33.48;99837.16;5053665;28;51448;-64
2023/07/15 08:16:45;;;;;;;;;0.50;0.50;;;;;32.29;33.89;99839.47;5038759;28;45474;-71
2023/07/15 08:19:11;;;;;;;;;1.00;1.00;;;;;32.53;33.21;99847.03;5041622;28;46308;-70
2023/07/15 08:21:37;;;;;;;;;0.50;0.50;;;;;32.66;32.69;99833.28;5055984;28;45342;-70
2023/07/15 08:24:02;;;;;;;;;1.75;1.75;;;;;32.70;32.72;99848.09;5030217;28;45260;-71
2023/07/15 08:26:28;;;;;;;;;3.00;3.00;;;;;32.81;32.78;99851.13;5056815;28;45529;-72
2023/07/15 08:28:55;;;;;;;;;2.00;1.75;;;;;32.68;32.13;99844.78;5028279;28;45388;-70
2023/07/15 08:31:27;;;;;;;;;1.00;1.00;;;;;32.62;32.32;99838.38;5057932;28;45498;-70
2023/07/15 08:33:53;;;;;;;;;2.00;2.00;;;;;32.90;32.67;99853.38;5057664;28;45217;-74
2023/07/15 08:36:18;;;;;;;;;2.00;2.00;;;;;33.15;32.41;99841.53;5058851;28;45573;-72
2023/07/15 08:38:43;;;;;;;;;1.25;1.25;;;;;33.44;32.11;99849.16;5057295;28;45459;-68
2023/07/15 08:41:10;;;;;;;;;1.75;1.75;;;;;33.59;31.33;99855.03;5040076;28;45388;-69
2023/07/15 08:43:35;;;;;;;;;1.50;1.50;;;;;33.63;32.05;99852.69;5057693;28;45839;-74
2023/07/15 08:46:26;;;;;;;;;0.00;0.00;;;;;33.76;31.60;99841.56;5057438;28;45324;-69
2023/07/15 08:48:55;;;;;;;;;1.50;1.25;;;;;33.94;31.74;99843.41;5048711;28;46166;-69
2023/07/15 08:51:22;;;;;;;;;1.50;1.50;;;;;34.14;31.43;99831.34;5057012;28;45420;-68
2023/07/15 08:53:48;;;;;;;;;0.00;0.00;;;;;34.31;31.53;99838.81;5056618;28;45273;-71
2023/07/15 08:56:14;;;;;;;;;1.50;1.50;;;;;34.41;30.90;99841.78;5055035;28;45597;-69
2023/07/15 08:58:41;;;;;;;;;1.00;1.00;;;;;34.47;31.19;99837.31;5057624;28;45749;-69
2023/07/15 09:01:06;;;;;;;;;2.00;2.00;;;;;34.51;31.30;99833.03;5056960;28;45262;-64
2023/07/15 09:03:31;;;;;;;;;1.50;1.50;;;;;34.67;31.02;99837.75;5055171;28;45600;-68
2023/07/15 09:05:57;;;;;;;;;3.00;3.00;;;;;34.59;30.86;99829.94;5057026;28;45546;-67
2023/07/15 09:08:25;;;;;;;;;2.00;2.00;;;;;34.60;30.49;99836.19;5038407;28;47489;-69
2023/07/15 09:10:52;;;;;;;;;3.25;3.25;;;;;34.58;30.46;99822.81;5056448;28;45324;-68
2023/07/15 09:13:32;;;;;;;;;2.00;2.00;;;;;34.49;30.61;99841.44;5050816;28;45861;-67
2023/07/15 09:15:59;;;;;;;;;3.50;3.50;;;;;34.23;30.78;99824.44;5036670;28;45327;-67
2023/07/15 09:18:25;;;;;;;;;1.00;1.00;;;;;34.20;30.95;99816.75;5036652;28;47051;-75
2023/07/15 09:21:05;;;;;;;;;0.50;0.50;;;;;34.25;30.47;99842.50;5048250;28;45546;-77
2023/07/15 09:23:31;;;;;;;;;1.75;1.75;;;;;34.05;30.64;99849.94;5043371;28;45468;-76
2023/07/15 09:25:56;;;;;;;;;1.00;1.00;;;;;34.14;30.49;99846.84;5056839;28;45558;-73
2023/07/15 09:28:21;;;;;;;;;0.25;0.25;;;;;33.91;30.86;99849.28;5056195;28;60282;-75
2023/07/15 09:30:47;;;;;;;;;3.00;3.00;;;;;33.85;30.45;99852.94;5056091;28;45260;-72
2023/07/15 09:33:32;;;;;;;;;1.25;1.25;;;;;33.86;31.44;99854.59;5056480;28;45245;-71
2023/07/15 09:35:58;;;;;;;;;2.00;2.00;;;;;33.84;31.40;99848.56;5056126;28;45452;-68
2023/07/15 09:38:32;;;;;;;;;2.50;2.50;;;;;33.77;31.77;99848.69;5055858;28;46192;-69
2023/07/15 09:41:01;;;;;;;;;0.75;0.75;;;;;33.63;32.25;99855.41;5056156;28;45288;-72
2023/07/15 09:43:49;;;;;;;;;3.00;3.00;;;;;33.73;32.08;99833.84;5062111;28;45280;-73
2023/07/15 09:46:20;;;;;;;;;2.00;2.00;;;;;33.77;31.82;99831.47;5045852;28;45276;-70
2023/07/15 09:48:46;;;;;;;;;2.00;2.00;;;;;33.98;31.94;99830.13;5054917;28;46286;-68
2023/07/15 09:51:14;;;;;;;;;2.25;2.25;;;;;34.30;31.82;99837.16;5056086;28;45415;-67
2023/07/15 09:53:48;;;;;;;;;7.25;7.25;;;;;34.59;31.56;99829.06;5056336;28;45240;-68
2023/07/15 09:56:20;;;;;;;;;3.75;3.75;;;;;34.88;31.35;99834.59;5056059;28;45253;-69
2023/07/15 09:58:49;;;;;;;;;2.25;2.25;;;;;35.36;31.05;99836.13;5055916;28;46240;-69
2023/07/15 10:01:39;;;;;;;;;1.00;1.00;;;;;35.58;30.26;99846.41;5057140;28;45696;-70
2023/07/15 10:04:16;;;;;;;;;2.50;1.50;;;;;35.50;30.53;99850.34;5037505;28;45291;-70
2023/07/15 10:06:43;;;;;;;;;2.25;2.25;;;;;35.59;30.02;99861.72;5066979;28;45444;-69
2023/07/15 10:09:09;;;;;;;;;1.50;1.00;;;;;35.79;29.87;99846.75;5049035;28;48381;-67
2023/07/15 10:11:35;;;;;;;;;2.00;2.00;;;;;36.03;29.49;99852.09;5056882;28;45240;-73
2023/07/15 10:14:01;;;;;;;;;3.00;3.00;;;;;36.12;29.57;99853.34;5064245;28;45355;-71
2023/07/15 10:16:26;;;;;;;;;3.00;3.00;;;;;36.07;29.14;99854.09;5072747;28;45598;-69
2023/07/15 10:18:54;;;;;;;;;2.00;2.00;;;;;36.04;29.21;99859.22;5059089;28;46827;-71
2023/07/15 10:21:20;;;;;;;;;4.50;4.50;;;;;35.97;29.41;99835.56;5051726;28;45576;-65
2023/07/15 10:23:45;;;;;;;;;3.00;3.00;;;;;36.25;29.57;99866.69;5075930;28;45417;-71
2023/07/15 10:26:10;;;;;;;;;3.00;3.00;;;;;36.32;29.10;99841.06;5075913;28;45424;-69
2023/07/15 10:28:39;;;;;;;;;2.00;2.00;;;;;36.51;28.99;99819.69;5076203;28;46165;-74
2023/07/15 10:31:08;;;;;;;;;4.00;4.00;;;;;36.93;29.10;99821.03;5075349;28;45421;-71
2023/07/15 10:33:35;;;;;;;;;2.00;2.00;;;;;37.30;28.29;99779.28;5075370;28;45347;-73
2023/07/15 10:36:05;;;;;;;;;4.25;4.25;;;;;37.38;27.64;99773.31;5075694;28;45580;-66
2023/07/15 10:38:31;;;;;;;;;3.75;3.75;;;;;37.65;27.54;99797.16;5076034;28;46093;-69
2023/07/15 10:41:04;;;;;;;;;3.25;3.25;;;;;37.95;27.09;99808.69;5075883;28;45216;-73
2023/07/15 10:43:33;;;;;;;;;2.00;2.00;;;;;38.08;26.68;99801.88;5075283;28;45244;-73
2023/07/15 10:46:01;;;;;;;;;3.00;3.00;;;;;37.97;26.63;99822.97;5076057;28;45280;-70
2023/07/15 10:48:27;;;;;;;;;2.50;2.50;;;;;38.24;26.81;99817.41;5075141;28;45436;-72
2023/07/15 10:50:54;;;;;;;;;2.00;2.00;;;;;38.41;26.08;99824.63;5074962;28;45393;-72
2023/07/15 10:53:26;;;;;;;;;2.00;2.00;;;;;38.20;25.83;99805.28;5075673;28;45157;-70
2023/07/15 10:56:03;;;;;;;;;3.50;3.50;;;;;38.04;26.17;99826.31;5076152;28;45445;-71
2023/07/15 10:58:32;;;;;;;;;8.00;8.00;;;;;37.83;26.25;99803.34;5075524;28;45367;-70
2023/07/15 11:01:03;;;;;;;;;2.00;2.00;;;;;37.84;26.20;99811.31;5079171;28;45228;-71
2023/07/15 11:03:30;;;;;;;;;1.75;1.75;;;;;37.78;25.93;99795.91;5081302;28;45437;-72
2023/07/15 11:05:58;;;;;;;;;3.75;3.75;;;;;38.04;25.53;99817.22;5061597;28;45220;-71
2023/07/15 11:08:24;;;;;;;;;4.00;4.00;;;;;38.17;25.51;99807.72;5079309;28;46150;-71
2023/07/15 11:11:05;;;;;;;;;2.50;2.50;;;;;38.24;25.53;99833.88;5079092;28;45385;-68
2023/07/15 11:13:31;;;;;;;;;2.00;2.00;;;;;38.24;25.20;99822.88;5078778;28;45330;-71
2023/07/15 11:15:57;;;;;;;;;2.00;2.00;;;;;37.92;25.41;99803.69;5078748;28;45530;-70
2023/07/15 11:18:25;;;;;;;;;5.25;5.25;;;;;37.89;25.57;99801.47;5078570;28;46271;-73
2023/07/15 11:20:56;;;;;;;;;3.25;3.25;;;;;38.16;25.49;99808.81;5078233;28;45398;-68
2023/07/15 11:23:22;;;;;;;;;4.00;4.00;;;;;38.12;25.19;99814.84;5078082;28;45292;-66
2023/07/15 11:25:47;;;;;;;;;2.00;2.00;;;;;38.17;25.59;99814.03;5078799;28;45241;-71
2023/07/15 11:28:13;;;;;;;;;3.25;3.25;;;;;38.16;25.20;99814.31;5077620;28;46272;-71
2023/07/15 11:30:41;;;;;;;;;3.75;3.75;;;;;38.27;25.46;99794.91;5078124;28;45404;-71
2023/07/15 11:33:07;;;;;;;;;0.50;0.50;;;;;38.32;25.07;99794.06;5078612;28;45367;-69